sensor_id;sensor_type;location;lat;lon;timestamp;pressure;altitude;pressure_sealevel;temperature;humidity
62524;BME280;53689;56.878;60.672;2023-06-22T00:01:31;97274.50;;;21.79;32.09
62524;BME280;53689;56.878;60.672;2023-06-22T00:03:58;97265.38;;;21.80;31.88
62524;BME280;53689;56.878;60.672;2023-06-22T00:06:25;97272.84;;;21.78;31.89
62524;BME280;53689;56.878;60.672;2023-06-22T00:08:53;97267.47;;;21.78;32.17
62524;BME280;53689;56.878;60.672;2023-06-22T00:11:20;97270.38;;;21.76;32.22
62524;BME280;53689;56.878;60.672;2023-06-22T00:13:48;97271.22;;;21.76;32.04
62524;BME280;53689;56.878;60.672;2023-06-22T00:16:15;97277.66;;;21.75;32.57
62524;BME280;53689;56.878;60.672;2023-06-22T00:18:43;97280.13;;;21.77;32.28
62524;BME280;53689;56.878;60.672;2023-06-22T00:21:10;97280.34;;;21.75;32.35
62524;BME280;53689;56.878;60.672;2023-06-22T00:23:37;97274.94;;;21.75;32.04
62524;BME280;53689;56.878;60.672;2023-06-22T00:26:04;97279.28;;;21.76;31.94
62524;BME280;53689;56.878;60.672;2023-06-22T00:28:31;97282.81;;;21.77;32.01
62524;BME280;53689;56.878;60.672;2023-06-22T00:31:02;97283.25;;;21.74;32.19
62524;BME280;53689;56.878;60.672;2023-06-22T00:33:29;97289.00;;;21.78;32.12
62524;BME280;53689;56.878;60.672;2023-06-22T00:35:56;97292.94;;;21.82;32.22
62524;BME280;53689;56.878;60.672;2023-06-22T00:38:24;97289.63;;;21.80;31.54
62524;BME280;53689;56.878;60.672;2023-06-22T00:40:51;97295.63;;;21.82;32.27
62524;BME280;53689;56.878;60.672;2023-06-22T00:43:19;97293.94;;;21.81;32.42
62524;BME280;53689;56.878;60.672;2023-06-22T00:45:47;97289.63;;;21.80;32.37
62524;BME280;53689;56.878;60.672;2023-06-22T00:48:18;97291.88;;;21.83;32.25
62524;BME280;53689;56.878;60.672;2023-06-22T00:50:47;97297.28;;;21.83;32.54
62524;BME280;53689;56.878;60.672;2023-06-22T00:53:14;97299.34;;;21.81;32.30
62524;BME280;53689;56.878;60.672;2023-06-22T00:55:41;97301.81;;;21.82;32.01
62524;BME280;53689;56.878;60.672;2023-06-22T00:58:09;97306.63;;;21.80;32.15
62524;BME280;53689;56.878;60.672;2023-06-22T01:00:36;97308.25;;;21.81;32.17
62524;BME280;53689;56.878;60.672;2023-06-22T01:03:05;97310.94;;;21.81;32.15
62524;BME280;53689;56.878;60.672;2023-06-22T01:05:34;97311.56;;;21.83;31.95
62524;BME280;53689;56.878;60.672;2023-06-22T01:08:05;97308.84;;;21.83;32.01
62524;BME280;53689;56.878;60.672;2023-06-22T01:10:40;97310.13;;;21.81;32.14
62524;BME280;53689;56.878;60.672;2023-06-22T01:13:13;97310.50;;;21.84;31.89
62524;BME280;53689;56.878;60.672;2023-06-22T01:15:44;97311.34;;;21.85;32.27
62524;BME280;53689;56.878;60.672;2023-06-22T01:18:12;97315.88;;;21.84;32.18
62524;BME280;53689;56.878;60.672;2023-06-22T01:20:44;97320.69;;;21.82;32.01
62524;BME280;53689;56.878;60.672;2023-06-22T01:23:13;97321.13;;;21.79;32.35
62524;BME280;53689;56.878;60.672;2023-06-22T01:25:45;97310.56;;;21.78;32.55
62524;BME280;53689;56.878;60.672;2023-06-22T01:28:19;97313.84;;;21.80;32.62
62524;BME280;53689;56.878;60.672;2023-06-22T01:30:49;97320.28;;;21.79;32.36
62524;BME280;53689;56.878;60.672;2023-06-22T01:33:18;97322.41;;;21.76;32.10
62524;BME280;53689;56.878;60.672;2023-06-22T01:35:45;97324.63;;;21.80;32.11
62524;BME280;53689;56.878;60.672;2023-06-22T01:38:12;97322.56;;;21.82;32.40
62524;BME280;53689;56.878;60.672;2023-06-22T01:40:40;97320.00;;;21.87;32.04
62524;BME280;53689;56.878;60.672;2023-06-22T01:43:07;97330.19;;;21.85;32.24
62524;BME280;53689;56.878;60.672;2023-06-22T01:45:35;97333.38;;;21.75;32.96
62524;BME280;53689;56.878;60.672;2023-06-22T01:48:04;97331.25;;;21.84;32.27
62524;BME280;53689;56.878;60.672;2023-06-22T01:50:31;97334.53;;;21.86;31.89
62524;BME280;53689;56.878;60.672;2023-06-22T01:52:59;97334.53;;;21.86;31.99
62524;BME280;53689;56.878;60.672;2023-06-22T01:55:26;97334.03;;;21.70;33.29
62524;BME280;53689;56.878;60.672;2023-06-22T01:57:53;97338.34;;;21.78;32.61
62524;BME280;53689;56.878;60.672;2023-06-22T02:00:21;97339.88;;;21.67;33.06
62524;BME280;53689;56.878;60.672;2023-06-22T02:02:51;97344.53;;;21.79;32.67
62524;BME280;53689;56.878;60.672;2023-06-22T02:05:21;97339.81;;;21.48;33.39
62524;BME280;53689;56.878;60.672;2023-06-22T02:07:52;97339.88;;;21.42;33.36
62524;BME280;53689;56.878;60.672;2023-06-22T02:10:23;97344.66;;;21.40;34.06
62524;BME280;53689;56.878;60.672;2023-06-22T02:12:51;97338.16;;;21.47;33.78
62524;BME280;53689;56.878;60.672;2023-06-22T02:15:18;97346.31;;;21.34;33.85
62524;BME280;53689;56.878;60.672;2023-06-22T02:17:46;97343.91;;;21.26;34.42
62524;BME280;53689;56.878;60.672;2023-06-22T02:20:14;97347.81;;;21.30;34.06
62524;BME280;53689;56.878;60.672;2023-06-22T02:22:43;97344.28;;;21.29;34.58
62524;BME280;53689;56.878;60.672;2023-06-22T02:25:10;97353.94;;;21.44;33.98
62524;BME280;53689;56.878;60.672;2023-06-22T02:27:37;97355.25;;;21.34;33.85
62524;BME280;53689;56.878;60.672;2023-06-22T02:30:05;97355.03;;;21.36;33.99
62524;BME280;53689;56.878;60.672;2023-06-22T02:32:32;97353.53;;;21.40;33.64
62524;BME280;53689;56.878;60.672;2023-06-22T02:35:01;97353.16;;;21.37;33.94
62524;BME280;53689;56.878;60.672;2023-06-22T02:37:28;97347.41;;;21.26;34.28
62524;BME280;53689;56.878;60.672;2023-06-22T02:39:57;97354.91;;;21.24;33.84
62524;BME280;53689;56.878;60.672;2023-06-22T02:42:24;97353.47;;;20.76;35.17
62524;BME280;53689;56.878;60.672;2023-06-22T02:44:52;97354.25;;;20.97;34.62
62524;BME280;53689;56.878;60.672;2023-06-22T02:47:19;97361.28;;;20.98;34.89
62524;BME280;53689;56.878;60.672;2023-06-22T02:49:46;97358.94;;;21.08;34.22
62524;BME280;53689;56.878;60.672;2023-06-22T02:52:15;97359.38;;;21.37;33.21
62524;BME280;53689;56.878;60.672;2023-06-22T02:54:42;97368.16;;;21.19;34.19
62524;BME280;53689;56.878;60.672;2023-06-22T02:57:11;97370.06;;;20.73;35.35
62524;BME280;53689;56.878;60.672;2023-06-22T02:59:38;97366.00;;;20.43;36.08
62524;BME280;53689;56.878;60.672;2023-06-22T03:02:08;97366.81;;;20.50;35.66
62524;BME280;53689;56.878;60.672;2023-06-22T03:04:35;97375.88;;;20.63;35.54
62524;BME280;53689;56.878;60.672;2023-06-22T03:07:03;97376.88;;;20.82;34.90
62524;BME280;53689;56.878;60.672;2023-06-22T03:09:32;97375.63;;;20.71;35.14
62524;BME280;53689;56.878;60.672;2023-06-22T03:11:59;97375.25;;;20.61;36.06
62524;BME280;53689;56.878;60.672;2023-06-22T03:14:37;97375.91;;;20.56;35.39
62524;BME280;53689;56.878;60.672;2023-06-22T03:17:04;97378.97;;;20.66;35.45
62524;BME280;53689;56.878;60.672;2023-06-22T03:19:31;97384.94;;;20.75;35.47
62524;BME280;53689;56.878;60.672;2023-06-22T03:21:59;97376.88;;;20.82;34.98
62524;BME280;53689;56.878;60.672;2023-06-22T03:24:26;97381.22;;;20.76;35.11
62524;BME280;53689;56.878;60.672;2023-06-22T03:26:53;97379.66;;;20.48;36.04
62524;BME280;53689;56.878;60.672;2023-06-22T03:29:21;97381.53;;;20.41;36.10
62524;BME280;53689;56.878;60.672;2023-06-22T03:31:50;97388.78;;;20.47;36.01
62524;BME280;53689;56.878;60.672;2023-06-22T03:34:17;97385.69;;;20.44;35.82
62524;BME280;53689;56.878;60.672;2023-06-22T03:36:44;97386.28;;;20.46;36.19
62524;BME280;53689;56.878;60.672;2023-06-22T03:39:12;97388.31;;;20.57;35.32
62524;BME280;53689;56.878;60.672;2023-06-22T03:41:40;97387.63;;;20.82;34.47
62524;BME280;53689;56.878;60.672;2023-06-22T03:44:07;97383.47;;;20.86;34.43
62524;BME280;53689;56.878;60.672;2023-06-22T03:46:35;97390.72;;;20.72;34.66
62524;BME280;53689;56.878;60.672;2023-06-22T03:49:05;97397.66;;;20.48;35.20
62524;BME280;53689;56.878;60.672;2023-06-22T03:51:32;97387.53;;;20.50;35.09
62524;BME280;53689;56.878;60.672;2023-06-22T03:53:59;97390.59;;;20.60;34.81
62524;BME280;53689;56.878;60.672;2023-06-22T03:56:26;97390.31;;;20.75;34.32
62524;BME280;53689;56.878;60.672;2023-06-22T03:58:54;97389.13;;;20.64;34.42
62524;BME280;53689;56.878;60.672;2023-06-22T04:01:21;97397.56;;;20.75;34.23
62524;BME280;53689;56.878;60.672;2023-06-22T04:03:48;97402.88;;;20.29;33.85
62524;BME280;53689;56.878;60.672;2023-06-22T04:06:17;97396.69;;;20.22;33.43
62524;BME280;53689;56.878;60.672;2023-06-22T04:08:45;97396.81;;;20.54;32.86
62524;BME280;53689;56.878;60.672;2023-06-22T04:11:12;97402.47;;;20.32;32.87
62524;BME280;53689;56.878;60.672;2023-06-22T04:13:39;97395.84;;;20.21;33.15
62524;BME280;53689;56.878;60.672;2023-06-22T04:16:06;97399.72;;;20.46;32.32
62524;BME280;53689;56.878;60.672;2023-06-22T04:18:33;97403.22;;;20.53;32.94
62524;BME280;53689;56.878;60.672;2023-06-22T04:21:01;97411.78;;;20.23;33.06
62524;BME280;53689;56.878;60.672;2023-06-22T04:23:29;97402.53;;;19.99;31.72
62524;BME280;53689;56.878;60.672;2023-06-22T04:25:57;97408.69;;;20.06;31.54
62524;BME280;53689;56.878;60.672;2023-06-22T04:28:24;97401.66;;;20.25;31.14
62524;BME280;53689;56.878;60.672;2023-06-22T04:30:53;97401.63;;;20.32;31.06
62524;BME280;53689;56.878;60.672;2023-06-22T04:33:21;97404.31;;;20.32;31.43
62524;BME280;53689;56.878;60.672;2023-06-22T04:35:48;97404.69;;;20.49;31.60
62524;BME280;53689;56.878;60.672;2023-06-22T04:38:15;97406.50;;;20.62;31.54
62524;BME280;53689;56.878;60.672;2023-06-22T04:40:44;97410.50;;;20.39;31.78
62524;BME280;53689;56.878;60.672;2023-06-22T04:43:11;97404.69;;;20.49;31.82
62524;BME280;53689;56.878;60.672;2023-06-22T04:45:38;97413.53;;;20.70;32.02
62524;BME280;53689;56.878;60.672;2023-06-22T04:48:05;97421.28;;;20.32;31.90
62524;BME280;53689;56.878;60.672;2023-06-22T04:50:32;97414.97;;;20.65;31.53
62524;BME280;53689;56.878;60.672;2023-06-22T04:53:00;97421.50;;;20.17;32.40
62524;BME280;53689;56.878;60.672;2023-06-22T04:55:27;97414.03;;;20.40;31.51
62524;BME280;53689;56.878;60.672;2023-06-22T04:57:56;97420.59;;;20.50;31.01
62524;BME280;53689;56.878;60.672;2023-06-22T05:00:23;97420.84;;;20.35;31.81
62524;BME280;53689;56.878;60.672;2023-06-22T05:02:50;97428.59;;;20.84;30.54
62524;BME280;53689;56.878;60.672;2023-06-22T05:05:19;97420.47;;;20.25;30.99
62524;BME280;53689;56.878;60.672;2023-06-22T05:07:46;97423.97;;;20.32;31.68
62524;BME280;53689;56.878;60.672;2023-06-22T05:10:14;97422.31;;;20.38;31.41
62524;BME280;53689;56.878;60.672;2023-06-22T05:12:41;97427.38;;;20.66;30.86
62524;BME280;53689;56.878;60.672;2023-06-22T05:15:10;97423.00;;;20.72;30.83
62524;BME280;53689;56.878;60.672;2023-06-22T05:17:37;97423.78;;;21.00;30.82
62524;BME280;53689;56.878;60.672;2023-06-22T05:20:05;97425.34;;;20.55;30.87
62524;BME280;53689;56.878;60.672;2023-06-22T05:22:33;97430.91;;;20.67;30.95
62524;BME280;53689;56.878;60.672;2023-06-22T05:25:01;97431.81;;;20.34;30.70
62524;BME280;53689;56.878;60.672;2023-06-22T05:27:28;97433.72;;;20.06;30.73
62524;BME280;53689;56.878;60.672;2023-06-22T05:29:55;97433.09;;;20.11;30.92
62524;BME280;53689;56.878;60.672;2023-06-22T05:32:24;97432.22;;;20.31;30.69
62524;BME280;53689;56.878;60.672;2023-06-22T05:34:51;97435.34;;;20.28;30.49
62524;BME280;53689;56.878;60.672;2023-06-22T05:37:18;97435.56;;;19.99;30.66
62524;BME280;53689;56.878;60.672;2023-06-22T05:39:45;97439.66;;;20.49;30.19
62524;BME280;53689;56.878;60.672;2023-06-22T05:42:12;97436.38;;;20.27;30.26
62524;BME280;53689;56.878;60.672;2023-06-22T05:44:40;97427.69;;;20.38;30.79
62524;BME280;53689;56.878;60.672;2023-06-22T05:47:07;97430.50;;;20.63;30.28
62524;BME280;53689;56.878;60.672;2023-06-22T05:49:38;97427.25;;;20.34;30.13
62524;BME280;53689;56.878;60.672;2023-06-22T05:52:06;97432.19;;;20.51;29.98
62524;BME280;53689;56.878;60.672;2023-06-22T05:54:33;97432.59;;;20.55;29.93
62524;BME280;53689;56.878;60.672;2023-06-22T05:57:00;97429.75;;;20.36;30.04
62524;BME280;53689;56.878;60.672;2023-06-22T05:59:27;97431.78;;;20.54;30.04
62524;BME280;53689;56.878;60.672;2023-06-22T06:01:55;97418.16;;;20.35;29.27
62524;BME280;53689;56.878;60.672;2023-06-22T06:04:22;97432.13;;;20.85;28.97
62524;BME280;53689;56.878;60.672;2023-06-22T06:06:51;97426.84;;;20.37;29.91
62524;BME280;53689;56.878;60.672;2023-06-22T06:09:18;97420.88;;;20.29;29.48
62524;BME280;53689;56.878;60.672;2023-06-22T06:11:45;97423.66;;;20.74;29.13
62524;BME280;53689;56.878;60.672;2023-06-22T06:14:12;97425.56;;;20.60;29.05
62524;BME280;53689;56.878;60.672;2023-06-22T06:16:40;97426.38;;;20.61;29.62
62524;BME280;53689;56.878;60.672;2023-06-22T06:19:07;97432.75;;;20.73;29.75
62524;BME280;53689;56.878;60.672;2023-06-22T06:21:34;97427.13;;;20.82;30.36
62524;BME280;53689;56.878;60.672;2023-06-22T06:24:06;97435.22;;;21.27;29.48
62524;BME280;53689;56.878;60.672;2023-06-22T06:26:33;97432.72;;;20.87;30.39
62524;BME280;53689;56.878;60.672;2023-06-22T06:29:00;97438.69;;;20.96;30.57
62524;BME280;53689;56.878;60.672;2023-06-22T06:31:28;97438.63;;;21.09;30.11
62524;BME280;53689;56.878;60.672;2023-06-22T06:33:56;97436.34;;;20.54;30.14
62524;BME280;53689;56.878;60.672;2023-06-22T06:36:23;97441.72;;;20.47;30.20
62524;BME280;53689;56.878;60.672;2023-06-22T06:38:50;97435.03;;;20.63;30.27
62524;BME280;53689;56.878;60.672;2023-06-22T06:41:19;97442.28;;;20.69;30.50
62524;BME280;53689;56.878;60.672;2023-06-22T06:43:46;97441.31;;;20.50;30.22
62524;BME280;53689;56.878;60.672;2023-06-22T06:46:14;97442.66;;;21.32;29.58
62524;BME280;53689;56.878;60.672;2023-06-22T06:48:42;97438.75;;;21.28;29.26
62524;BME280;53689;56.878;60.672;2023-06-22T06:51:09;97442.59;;;21.45;29.56
62524;BME280;53689;56.878;60.672;2023-06-22T06:53:37;97453.84;;;21.29;29.92
62524;BME280;53689;56.878;60.672;2023-06-22T06:56:04;97437.09;;;20.68;30.13
62524;BME280;53689;56.878;60.672;2023-06-22T06:58:33;97444.38;;;21.19;29.82
62524;BME280;53689;56.878;60.672;2023-06-22T07:01:01;97443.03;;;20.97;29.88
62524;BME280;53689;56.878;60.672;2023-06-22T07:03:28;97456.38;;;21.56;29.44
62524;BME280;53689;56.878;60.672;2023-06-22T07:05:55;97453.00;;;21.35;29.80
62524;BME280;53689;56.878;60.672;2023-06-22T07:08:23;97459.78;;;20.99;30.18
62524;BME280;53689;56.878;60.672;2023-06-22T07:10:50;97451.59;;;20.73;30.38
62524;BME280;53689;56.878;60.672;2023-06-22T07:13:19;97455.94;;;21.27;29.63
62524;BME280;53689;56.878;60.672;2023-06-22T07:15:47;97453.16;;;21.01;30.29
62524;BME280;53689;56.878;60.672;2023-06-22T07:18:15;97445.69;;;21.03;29.96
62524;BME280;53689;56.878;60.672;2023-06-22T07:20:42;97441.19;;;21.36;29.70
62524;BME280;53689;56.878;60.672;2023-06-22T07:23:09;97455.72;;;21.28;30.11
62524;BME280;53689;56.878;60.672;2023-06-22T07:25:38;97446.59;;;20.90;30.17
62524;BME280;53689;56.878;60.672;2023-06-22T07:28:06;97443.47;;;20.80;30.41
62524;BME280;53689;56.878;60.672;2023-06-22T07:30:33;97434.56;;;20.86;30.25
62524;BME280;53689;56.878;60.672;2023-06-22T07:33:03;97442.41;;;21.01;32.16
62524;BME280;53689;56.878;60.672;2023-06-22T07:35:30;97434.38;;;20.81;30.36
62524;BME280;53689;56.878;60.672;2023-06-22T07:37:58;97438.78;;;21.14;29.78
62524;BME280;53689;56.878;60.672;2023-06-22T07:40:26;97432.69;;;20.93;30.51
62524;BME280;53689;56.878;60.672;2023-06-22T07:42:55;97451.19;;;21.22;29.95
62524;BME280;53689;56.878;60.672;2023-06-22T07:45:22;97453.94;;;21.15;29.57
62524;BME280;53689;56.878;60.672;2023-06-22T07:47:49;97450.91;;;20.91;30.05
62524;BME280;53689;56.878;60.672;2023-06-22T07:50:18;97452.59;;;20.72;30.15
62524;BME280;53689;56.878;60.672;2023-06-22T07:52:45;97444.59;;;21.18;30.20
62524;BME280;53689;56.878;60.672;2023-06-22T07:55:13;97441.69;;;21.52;29.80
62524;BME280;53689;56.878;60.672;2023-06-22T07:57:40;97443.28;;;21.27;29.97
62524;BME280;53689;56.878;60.672;2023-06-22T08:00:07;97439.56;;;21.60;29.68
62524;BME280;53689;56.878;60.672;2023-06-22T08:02:38;97443.78;;;21.49;29.37
62524;BME280;53689;56.878;60.672;2023-06-22T08:05:05;97457.16;;;21.31;31.34
62524;BME280;53689;56.878;60.672;2023-06-22T08:07:48;97462.28;;;21.39;30.35
62524;BME280;53689;56.878;60.672;2023-06-22T08:10:16;97462.84;;;21.48;30.36
62524;BME280;53689;56.878;60.672;2023-06-22T08:12:43;97464.97;;;21.39;30.20
62524;BME280;53689;56.878;60.672;2023-06-22T08:15:10;97479.56;;;21.25;30.60
62524;BME280;53689;56.878;60.672;2023-06-22T08:20:05;97466.41;;;21.03;30.21
62524;BME280;53689;56.878;60.672;2023-06-22T08:22:32;97466.94;;;21.57;29.91
62524;BME280;53689;56.878;60.672;2023-06-22T08:25:01;97481.22;;;21.26;30.11
62524;BME280;53689;56.878;60.672;2023-06-22T08:27:28;97469.41;;;21.27;30.01
62524;BME280;53689;56.878;60.672;2023-06-22T08:29:55;97466.63;;;20.95;30.18
62524;BME280;53689;56.878;60.672;2023-06-22T08:32:23;97479.56;;;21.25;29.89
62524;BME280;53689;56.878;60.672;2023-06-22T08:34:50;97475.38;;;21.29;30.20
62524;BME280;53689;56.878;60.672;2023-06-22T08:37:17;97481.22;;;21.26;29.64
62524;BME280;53689;56.878;60.672;2023-06-22T08:39:44;97480.53;;;20.78;30.25
62524;BME280;53689;56.878;60.672;2023-06-22T08:42:13;97489.00;;;20.95;30.18
62524;BME280;53689;56.878;60.672;2023-06-22T08:44:40;97489.22;;;20.80;30.23
62524;BME280;53689;56.878;60.672;2023-06-22T08:47:07;97494.59;;;20.80;30.01
62524;BME280;53689;56.878;60.672;2023-06-22T08:49:35;97491.31;;;20.85;29.72
62524;BME280;53689;56.878;60.672;2023-06-22T08:52:02;97502.88;;;20.92;30.11
62524;BME280;53689;56.878;60.672;2023-06-22T08:54:29;97485.84;;;21.05;29.94
62524;BME280;53689;56.878;60.672;2023-06-22T08:56:56;97496.94;;;21.29;29.83
62524;BME280;53689;56.878;60.672;2023-06-22T08:59:25;97494.47;;;21.20;29.69
62524;BME280;53689;56.878;60.672;2023-06-22T09:01:52;97485.69;;;20.79;30.17
62524;BME280;53689;56.878;60.672;2023-06-22T09:04:22;97489.72;;;21.16;30.02
62524;BME280;53689;56.878;60.672;2023-06-22T09:06:49;97488.25;;;21.27;31.05
62524;BME280;53689;56.878;60.672;2023-06-22T09:09:16;97491.72;;;21.34;29.78
62524;BME280;53689;56.878;60.672;2023-06-22T09:11:44;97497.84;;;21.55;31.31
62524;BME280;53689;56.878;60.672;2023-06-22T09:14:11;97495.41;;;21.46;30.08
62524;BME280;53689;56.878;60.672;2023-06-22T09:16:40;97501.44;;;21.42;30.45
62524;BME280;53689;56.878;60.672;2023-06-22T09:19:07;97511.41;;;21.34;30.64
62524;BME280;53689;56.878;60.672;2023-06-22T09:21:34;97503.69;;;20.92;30.49
62524;BME280;53689;56.878;60.672;2023-06-22T09:24:02;97497.97;;;21.28;30.47
62524;BME280;53689;56.878;60.672;2023-06-22T09:26:29;97507.56;;;21.10;30.45
62524;BME280;53689;56.878;60.672;2023-06-22T09:28:56;97513.88;;;21.36;30.08
62524;BME280;53689;56.878;60.672;2023-06-22T09:31:23;97499.94;;;21.07;30.58
62524;BME280;53689;56.878;60.672;2023-06-22T09:33:52;97496.59;;;21.05;30.24
62524;BME280;53689;56.878;60.672;2023-06-22T09:36:20;97501.44;;;21.42;29.98
62524;BME280;53689;56.878;60.672;2023-06-22T09:38:47;97497.72;;;21.36;29.51
62524;BME280;53689;56.878;60.672;2023-06-22T09:41:14;97499.72;;;21.47;29.67
62524;BME280;53689;56.878;60.672;2023-06-22T09:43:42;97499.78;;;21.34;29.95
62524;BME280;53689;56.878;60.672;2023-06-22T09:46:10;97501.38;;;21.48;29.88
62524;BME280;53689;56.878;60.672;2023-06-22T09:48:37;97507.38;;;21.51;29.72
62524;BME280;53689;56.878;60.672;2023-06-22T09:51:08;97507.66;;;21.35;29.74
62524;BME280;53689;56.878;60.672;2023-06-22T09:53:35;97501.53;;;21.15;29.41
62524;BME280;53689;56.878;60.672;2023-06-22T09:56:02;97497.25;;;20.93;29.03
62524;BME280;53689;56.878;60.672;2023-06-22T09:58:30;97503.03;;;21.11;29.45
62524;BME280;53689;56.878;60.672;2023-06-22T10:00:57;97516.44;;;21.17;29.30
62524;BME280;53689;56.878;60.672;2023-06-22T10:03:24;97508.50;;;21.29;29.51
62524;BME280;53689;56.878;60.672;2023-06-22T10:05:51;97513.69;;;21.31;28.96
62524;BME280;53689;56.878;60.672;2023-06-22T10:08:20;97514.41;;;21.52;29.15
62524;BME280;53689;56.878;60.672;2023-06-22T10:10:47;97521.19;;;21.61;29.14
62524;BME280;53689;56.878;60.672;2023-06-22T10:13:14;97522.88;;;21.55;29.15
62524;BME280;53689;56.878;60.672;2023-06-22T10:15:41;97529.91;;;21.56;29.21
62524;BME280;53689;56.878;60.672;2023-06-22T10:18:09;97522.09;;;21.48;28.88
62524;BME280;53689;56.878;60.672;2023-06-22T10:20:37;97514.13;;;21.73;28.62
62524;BME280;53689;56.878;60.672;2023-06-22T10:23:04;97516.59;;;21.75;28.68
62524;BME280;53689;56.878;60.672;2023-06-22T10:25:33;97521.97;;;21.82;28.55
62524;BME280;53689;56.878;60.672;2023-06-22T10:28:00;97525.41;;;21.89;28.43
62524;BME280;53689;56.878;60.672;2023-06-22T10:30:27;97524.59;;;21.88;28.83
62524;BME280;53689;56.878;60.672;2023-06-22T10:32:54;97517.31;;;21.89;28.83
62524;BME280;53689;56.878;60.672;2023-06-22T10:35:22;97530.38;;;21.92;28.83
62524;BME280;53689;56.878;60.672;2023-06-22T10:37:49;97525.19;;;21.90;28.59
62524;BME280;53689;56.878;60.672;2023-06-22T10:40:16;97525.06;;;21.79;28.56
62524;BME280;53689;56.878;60.672;2023-06-22T10:42:45;97523.03;;;21.74;28.87
62524;BME280;53689;56.878;60.672;2023-06-22T10:45:12;97520.81;;;21.96;28.22
62524;BME280;53689;56.878;60.672;2023-06-22T10:47:39;97520.81;;;21.96;28.48
62524;BME280;53689;56.878;60.672;2023-06-22T10:50:07;97517.44;;;22.01;28.52
62524;BME280;53689;56.878;60.672;2023-06-22T10:52:34;97515.25;;;21.91;29.01
62524;BME280;53689;56.878;60.672;2023-06-22T10:55:01;97517.84;;;22.04;28.60
62524;BME280;53689;56.878;60.672;2023-06-22T10:57:28;97514.28;;;22.11;28.61
62524;BME280;53689;56.878;60.672;2023-06-22T10:59:57;97518.66;;;22.05;28.80
62524;BME280;53689;56.878;60.672;2023-06-22T11:02:24;97522.97;;;22.13;28.90
62524;BME280;53689;56.878;60.672;2023-06-22T11:04:51;97516.59;;;22.07;28.71
62524;BME280;53689;56.878;60.672;2023-06-22T11:07:18;97526.63;;;21.93;29.22
62524;BME280;53689;56.878;60.672;2023-06-22T11:09:46;97525.09;;;22.04;29.07
62524;BME280;53689;56.878;60.672;2023-06-22T11:12:13;97516.78;;;21.80;29.99
62524;BME280;53689;56.878;60.672;2023-06-22T11:14:40;97524.69;;;22.00;31.75
62524;BME280;53689;56.878;60.672;2023-06-22T11:17:09;97530.09;;;22.00;29.85
62524;BME280;53689;56.878;60.672;2023-06-22T11:19:37;97516.78;;;22.06;29.83
62524;BME280;53689;56.878;60.672;2023-06-22T11:22:05;97533.38;;;22.09;29.49
62524;BME280;53689;56.878;60.672;2023-06-22T11:24:32;97530.09;;;22.00;29.49
62524;BME280;53689;56.878;60.672;2023-06-22T11:26:59;97529.41;;;22.12;28.67
62524;BME280;53689;56.878;60.672;2023-06-22T11:29:26;97525.22;;;22.16;29.25
62524;BME280;53689;56.878;60.672;2023-06-22T11:32:04;97526.06;;;22.16;28.95
62524;BME280;53689;56.878;60.672;2023-06-22T11:34:33;97533.56;;;22.08;29.63
62524;BME280;53689;56.878;60.672;2023-06-22T11:37:00;97527.63;;;21.99;31.57
62524;BME280;53689;56.878;60.672;2023-06-22T11:39:27;97536.31;;;22.01;30.41
62524;BME280;53689;56.878;60.672;2023-06-22T11:42:08;97536.19;;;22.21;29.52
62524;BME280;53689;56.878;60.672;2023-06-22T11:44:36;97528.75;;;22.16;29.43
62524;BME280;53689;56.878;60.672;2023-06-22T11:47:03;97537.22;;;21.88;29.64
62524;BME280;53689;56.878;60.672;2023-06-22T11:49:30;97541.25;;;22.04;29.72
62524;BME280;53689;56.878;60.672;2023-06-22T11:51:59;97539.69;;;22.22;28.93
62524;BME280;53689;56.878;60.672;2023-06-22T11:54:26;97533.25;;;22.23;29.35
62524;BME280;53689;56.878;60.672;2023-06-22T11:56:53;97542.31;;;22.28;28.79
62524;BME280;53689;56.878;60.672;2023-06-22T11:59:22;97537.00;;;22.22;29.32
62524;BME280;53689;56.878;60.672;2023-06-22T12:01:50;97539.28;;;22.25;29.48
62524;BME280;53689;56.878;60.672;2023-06-22T12:04:17;97546.13;;;22.21;29.56
62524;BME280;53689;56.878;60.672;2023-06-22T12:06:44;97538.88;;;22.21;29.50
62524;BME280;53689;56.878;60.672;2023-06-22T12:09:14;97542.50;;;22.08;29.43
62524;BME280;53689;56.878;60.672;2023-06-22T12:11:42;97540.19;;;22.12;29.14
62524;BME280;53689;56.878;60.672;2023-06-22T12:14:09;97541.44;;;22.35;29.02
62524;BME280;53689;56.878;60.672;2023-06-22T12:16:36;97543.69;;;22.38;28.67
62524;BME280;53689;56.878;60.672;2023-06-22T12:19:03;97544.59;;;22.31;29.01
62524;BME280;53689;56.878;60.672;2023-06-22T12:21:30;97541.56;;;22.21;29.39
62524;BME280;53689;56.878;60.672;2023-06-22T12:23:57;97546.25;;;22.33;28.95
62524;BME280;53689;56.878;60.672;2023-06-22T12:26:26;97540.13;;;22.44;28.84
62524;BME280;53689;56.878;60.672;2023-06-22T12:28:53;97548.94;;;22.33;28.72
62524;BME280;53689;56.878;60.672;2023-06-22T12:31:20;97548.94;;;22.33;28.99
62524;BME280;53689;56.878;60.672;2023-06-22T12:33:48;97549.44;;;22.23;28.91
62524;BME280;53689;56.878;60.672;2023-06-22T12:36:15;97548.16;;;22.25;28.93
62524;BME280;53689;56.878;60.672;2023-06-22T12:38:43;97548.50;;;22.36;28.98
62524;BME280;53689;56.878;60.672;2023-06-22T12:41:10;97554.22;;;22.46;28.89
62524;BME280;53689;56.878;60.672;2023-06-22T12:43:40;97556.91;;;22.46;29.34
62524;BME280;53689;56.878;60.672;2023-06-22T12:46:08;97560.44;;;22.47;29.23
62524;BME280;53689;56.878;60.672;2023-06-22T12:48:35;97554.56;;;22.56;28.80
62524;BME280;53689;56.878;60.672;2023-06-22T12:51:02;97559.53;;;22.59;28.38
62524;BME280;53689;56.878;60.672;2023-06-22T12:53:29;97565.22;;;22.51;28.74
62524;BME280;53689;56.878;60.672;2023-06-22T12:55:57;97560.44;;;22.47;29.21